createdAt,value
2018-02-17T01:00:21.514Z,68.70
2018-02-17T01:10:10.333Z,69.20
2018-02-17T01:12:38.179Z,69.60
2018-02-17T02:21:21.501Z,69.40
2018-02-17T02:23:49.293Z,69.20
2018-02-17T02:26:17.084Z,69.00
2018-02-17T02:46:55.776Z,69.20
2018-02-17T02:49:23.602Z,69.20
2018-02-17T02:51:53.487Z,69.20
2018-02-17T02:54:21.285Z,69.00
2018-02-17T02:56:49.081Z,68.90
2018-02-17T02:59:31.493Z,68.70
2018-02-17T03:01:59.301Z,68.30
2018-02-17T03:04:32.122Z,68.00
2018-02-17T03:06:59.945Z,68.20
2018-02-17T03:09:31.630Z,67.80
2018-02-17T03:11:59.489Z,67.70
2018-02-17T03:14:27.294Z,67.80
2018-02-17T03:16:55.089Z,67.90
2018-02-17T03:19:27.718Z,68.00
2018-02-17T03:21:55.544Z,68.00
2018-02-17T03:24:23.461Z,68.10
2018-02-17T03:26:51.265Z,68.20
2018-02-17T03:29:19.045Z,69.00
2018-02-17T03:31:46.838Z,68.60
2018-02-17T03:34:14.621Z,68.60
2018-02-17T03:36:42.416Z,68.70
2018-02-17T03:39:10.287Z,68.70
2018-02-17T03:41:38.101Z,68.70
2018-02-17T03:44:05.908Z,68.80
2018-02-17T03:46:33.685Z,68.90
2018-02-17T03:49:01.484Z,69.00
2018-02-17T03:51:29.312Z,69.10
2018-02-17T03:53:58.038Z,69.20
2018-02-17T03:56:25.868Z,69.40
2018-02-17T03:58:53.650Z,69.40
2018-02-17T04:01:21.439Z,69.20
2018-02-17T04:03:49.257Z,69.10
2018-02-17T04:06:17.186Z,69.00
2018-02-17T04:08:45.944Z,68.80
2018-02-17T04:11:13.745Z,68.80
2018-02-17T04:13:42.354Z,68.60
2018-02-17T04:16:10.250Z,68.60
2018-02-17T05:03:58.782Z,66.70
2018-02-17T05:13:03.240Z,66.80
2018-02-17T05:29:58.928Z,66.80
2018-02-17T05:32:41.615Z,66.60
2018-02-17T05:35:19.409Z,66.50
2018-02-17T05:57:51.363Z,66.60
2018-02-17T06:00:19.429Z,66.30
2018-02-17T06:02:47.377Z,66.20
2018-02-17T06:05:15.218Z,66.20
2018-02-17T06:07:43.310Z,66.10
2018-02-17T06:10:11.118Z,66.30
2018-02-17T06:12:38.902Z,66.40
2018-02-17T06:15:07.441Z,66.20
2018-02-17T06:17:35.245Z,66.10
2018-02-17T06:20:03.031Z,66.30
2018-02-17T06:22:30.879Z,66.30
2018-02-17T06:24:58.660Z,66.30
2018-02-17T06:27:26.449Z,66.40
2018-02-17T06:29:54.244Z,66.30
2018-02-17T06:32:22.039Z,66.40
2018-02-17T06:34:49.853Z,66.50
2018-02-17T06:37:18.480Z,66.60
2018-02-17T06:39:46.266Z,67.00
2018-02-17T06:42:14.067Z,66.90
2018-02-17T06:44:42.772Z,67.10
2018-02-17T06:47:10.562Z,67.20
2018-02-17T06:49:38.341Z,67.10
2018-02-17T06:52:06.906Z,67.30
2018-02-17T06:54:34.694Z,67.80
2018-02-17T06:57:02.491Z,67.70
2018-02-17T06:59:30.349Z,67.70
2018-02-17T07:01:58.293Z,67.70
2018-02-17T07:04:26.859Z,68.00
2018-02-17T07:06:55.458Z,67.90
2018-02-17T07:09:23.275Z,67.90
2018-02-17T07:11:51.059Z,67.60
2018-02-17T07:14:19.615Z,67.60
2018-02-17T07:16:49.231Z,67.60
2018-02-17T07:19:17.891Z,67.40
2018-02-17T07:21:45.742Z,67.40
2018-02-17T07:24:13.671Z,67.40
2018-02-17T07:26:41.536Z,67.30
2018-02-17T07:29:10.850Z,67.50
2018-02-17T07:31:38.665Z,67.40
2018-02-17T07:34:07.537Z,67.20
2018-02-17T07:36:35.390Z,67.30
2018-02-17T07:39:03.305Z,67.30
2018-02-17T07:41:31.947Z,67.30
2018-02-17T07:43:59.730Z,67.50
2018-02-17T07:46:28.366Z,67.80
2018-02-17T07:48:59.514Z,67.80
2018-02-17T07:51:27.787Z,67.90
2018-02-17T07:53:55.851Z,67.80
2018-02-17T07:56:25.355Z,67.90
2018-02-17T07:58:56.287Z,68.00
2018-02-17T08:01:24.879Z,68.00
2018-02-17T08:03:54.991Z,68.00
2018-02-17T08:06:24.862Z,67.90
2018-02-17T08:17:11.642Z,68.10
2018-02-17T10:09:11.893Z,63.10
2018-02-17T10:11:39.763Z,63.20
2018-02-17T10:14:07.546Z,63.40
2018-02-17T10:16:35.342Z,63.40
2018-02-17T10:19:18.663Z,63.20
2018-02-17T10:22:17.171Z,63.40
2018-02-17T10:24:45.272Z,63.20
2018-02-17T10:27:13.079Z,63.20
2018-02-17T10:29:40.925Z,63.40
2018-02-17T10:32:08.729Z,63.70
2018-02-17T10:34:36.519Z,63.60
2018-02-17T10:37:04.294Z,63.70
2018-02-17T10:39:32.888Z,63.70
2018-02-17T10:42:01.439Z,63.40
2018-02-17T10:44:29.240Z,63.40
2018-02-17T10:46:57.929Z,63.50
2018-02-17T10:49:26.494Z,63.80
2018-02-17T10:51:54.274Z,63.80
2018-02-17T10:54:22.096Z,63.50
2018-02-17T10:56:49.898Z,63.70
2018-02-17T10:59:17.674Z,64.00
2018-02-17T11:01:45.445Z,64.20
2018-02-17T11:04:13.234Z,64.10
2018-02-17T11:06:41.032Z,64.00
2018-02-17T11:09:08.827Z,64.20
2018-02-17T11:11:36.625Z,64.60
2018-02-17T11:14:04.449Z,64.60
2018-02-17T11:16:32.999Z,64.90
2018-02-17T11:19:00.857Z,64.90
2018-02-17T11:21:28.674Z,65.20
2018-02-17T11:23:56.470Z,65.20
2018-02-17T11:26:24.250Z,65.10
2018-02-17T11:28:52.025Z,64.80
2018-02-17T11:31:19.814Z,65.00
2018-02-17T11:33:48.392Z,65.50
2018-02-17T11:36:16.177Z,65.60
2018-02-17T11:38:44.733Z,66.20
2018-02-17T11:41:12.557Z,65.50
2018-02-17T11:43:40.371Z,66.70
2018-02-17T11:46:08.181Z,65.80
2018-02-17T11:48:36.026Z,66.00
2018-02-17T11:51:03.880Z,66.40
2018-02-17T11:53:31.811Z,66.50
2018-02-17T11:55:59.685Z,66.90
2018-02-17T11:58:27.483Z,66.90
2018-02-17T12:00:56.037Z,67.20
2018-02-17T12:03:23.884Z,67.20
2018-02-17T12:05:51.686Z,67.10
2018-02-17T12:08:20.250Z,67.90
2018-02-17T12:10:48.021Z,67.90
2018-02-17T12:13:15.805Z,68.10
2018-02-17T12:15:43.634Z,68.40
2018-02-17T12:18:11.553Z,68.40
2018-02-17T12:20:39.484Z,68.50
2018-02-17T12:23:07.295Z,68.50
2018-02-17T12:25:35.110Z,68.20
2018-02-17T12:28:02.928Z,68.20
2018-02-17T12:30:30.742Z,67.70
2018-02-17T12:32:58.529Z,68.20
2018-02-17T12:35:26.453Z,67.60
2018-02-17T12:37:54.303Z,67.60
2018-02-17T12:40:22.090Z,67.90
2018-02-17T12:42:50.101Z,68.20
2018-02-17T12:45:18.818Z,67.50
2018-02-17T12:47:46.607Z,67.50
2018-02-17T12:50:14.434Z,67.70
2018-02-17T12:52:42.251Z,67.10
2018-02-17T12:55:10.039Z,67.00
2018-02-17T12:57:38.587Z,67.30
2018-02-17T13:00:06.368Z,67.30
2018-02-17T13:02:34.182Z,67.10
2018-02-17T13:05:01.967Z,67.30
2018-02-17T13:07:30.058Z,66.80
2018-02-17T13:09:57.878Z,67.00
2018-02-17T13:12:25.762Z,66.80
2018-02-17T13:14:53.558Z,66.20
2018-02-17T13:17:21.374Z,65.90
2018-02-17T13:19:49.203Z,65.90
2018-02-17T13:22:17.783Z,66.30
2018-02-17T13:24:45.628Z,66.30
2018-02-17T13:27:13.423Z,65.70
2018-02-17T13:29:42.046Z,65.70
2018-02-17T13:32:09.845Z,65.70
2018-02-17T13:34:37.670Z,65.70
2018-02-17T13:37:05.514Z,65.70
2018-02-17T13:39:33.350Z,65.90
2018-02-17T13:42:01.389Z,66.10
2018-02-17T13:44:29.195Z,66.20
2018-02-17T13:46:57.076Z,66.10
2018-02-17T13:49:25.849Z,66.30
2018-02-17T13:51:53.787Z,66.30
2018-02-17T13:54:21.586Z,66.40
2018-02-17T13:56:49.390Z,66.20
2018-02-17T13:59:17.565Z,65.90
2018-02-17T14:01:51.962Z,65.80
2018-02-17T14:04:20.649Z,66.10
2018-02-17T14:06:48.477Z,66.10
2018-02-17T14:09:16.255Z,66.00
2018-02-17T14:11:44.068Z,66.00
2018-02-17T14:14:14.439Z,66.10
2018-02-17T14:16:42.302Z,66.30
2018-02-17T14:19:10.102Z,66.50
2018-02-17T14:21:37.906Z,66.10
2018-02-17T14:24:05.695Z,65.80
2018-02-17T14:26:33.482Z,65.80
2018-02-17T14:29:02.042Z,65.90
2018-02-17T14:31:29.831Z,65.90
2018-02-17T14:33:59.046Z,65.80
2018-02-17T14:36:27.594Z,65.80
2018-02-17T14:38:55.386Z,64.90
2018-02-17T14:41:23.254Z,64.70
2018-02-17T14:43:51.069Z,65.10
2018-02-17T14:46:19.186Z,65.00
2018-02-17T14:48:47.957Z,65.70
2018-02-17T14:51:16.874Z,66.10
2018-02-17T14:53:45.462Z,66.10
2018-02-17T14:56:14.122Z,66.50
2018-02-17T14:58:42.710Z,66.60
2018-02-17T15:01:11.267Z,67.30
2018-02-17T15:03:39.066Z,67.30
2018-02-17T15:06:06.867Z,67.60
2018-02-17T15:08:34.728Z,67.80
2018-02-17T15:11:02.542Z,67.90
2018-02-17T15:13:31.088Z,67.40
2018-02-17T15:15:58.869Z,67.40
2018-02-17T15:18:26.669Z,67.60
2018-02-17T15:20:55.210Z,68.30
2018-02-17T15:23:23.003Z,67.60
2018-02-17T15:25:51.596Z,67.70
2018-02-17T15:28:20.165Z,67.60
2018-02-17T15:30:50.049Z,67.50
2018-02-17T15:33:17.845Z,67.50
2018-02-17T15:35:48.075Z,66.80
2018-02-17T15:38:16.698Z,67.10
2018-02-17T15:40:44.475Z,67.10
2018-02-17T15:43:12.254Z,67.40
2018-02-17T15:45:40.037Z,67.50
2018-02-17T15:48:07.833Z,67.50
2018-02-17T15:50:35.762Z,67.40
2018-02-17T15:53:03.716Z,67.50
2018-02-17T15:55:31.635Z,67.70
2018-02-17T15:57:59.436Z,67.60
2018-02-17T16:00:27.251Z,67.40
2018-02-17T16:02:57.548Z,67.50
2018-02-17T16:05:25.750Z,67.40
2018-02-17T16:17:24.250Z,67.90
2018-02-17T16:22:39.861Z,67.80
2018-02-17T16:25:07.774Z,67.80
2018-02-17T16:36:49.977Z,67.40
2018-02-17T16:39:17.791Z,67.70
2018-02-17T16:41:46.329Z,67.80
2018-02-17T16:44:14.180Z,67.80
2018-02-17T16:46:41.979Z,67.60
2018-02-17T16:49:11.179Z,68.20
2018-02-17T16:51:39.739Z,68.60
2018-02-17T16:54:07.507Z,68.60
2018-02-17T16:56:35.328Z,68.40
2018-02-17T16:59:03.112Z,68.40
2018-02-17T17:01:30.892Z,68.60
2018-02-17T17:03:58.859Z,68.40
2018-02-17T17:06:26.740Z,68.50
2018-02-17T17:08:54.626Z,68.50
2018-02-17T17:11:23.281Z,69.30
2018-02-17T17:13:51.175Z,69.30
2018-02-17T17:16:19.850Z,70.30
2018-02-17T17:18:47.651Z,69.50
2018-02-17T17:21:15.444Z,69.60
2018-02-17T17:23:43.532Z,69.90
2018-02-17T17:26:12.343Z,69.90
2018-02-17T17:28:40.246Z,70.00
2018-02-17T17:31:09.694Z,70.80
2018-02-17T17:33:37.578Z,70.10
2018-02-17T17:36:05.422Z,69.90
2018-02-17T17:38:33.338Z,70.00
2018-02-17T17:41:01.227Z,69.80
2018-02-17T17:43:29.057Z,69.90
2018-02-17T17:45:56.870Z,70.10
2018-02-17T17:48:24.995Z,70.40
2018-02-17T17:50:53.606Z,70.60
2018-02-17T17:53:21.776Z,70.60
2018-02-17T17:55:49.566Z,70.80
2018-02-17T17:58:17.472Z,70.70
2018-02-17T18:00:46.061Z,70.90
2018-02-17T18:03:13.902Z,70.90
2018-02-17T18:08:36.331Z,71.00
2018-02-17T18:19:39.004Z,71.70
2018-02-17T18:22:26.172Z,71.80
2018-02-17T18:30:26.979Z,71.70
2018-02-17T18:32:54.867Z,71.50
2018-02-17T18:35:23.202Z,71.70
2018-02-17T18:37:50.986Z,71.80
2018-02-17T18:40:18.811Z,71.60
2018-02-17T18:42:47.390Z,72.20
2018-02-17T18:45:15.874Z,71.40
2018-02-17T18:47:44.590Z,71.20
2018-02-17T18:50:12.599Z,71.00
2018-02-17T18:52:40.391Z,70.60
2018-02-17T18:55:08.168Z,70.90
2018-02-17T18:57:36.407Z,70.30
2018-02-17T19:00:05.241Z,69.90
2018-02-17T19:02:33.808Z,69.70
2018-02-17T19:05:02.042Z,69.70
2018-02-17T19:07:30.367Z,69.50
2018-02-17T19:09:59.618Z,69.50
2018-02-17T19:12:27.485Z,69.50
2018-02-17T19:14:55.320Z,69.60
2018-02-17T19:17:26.655Z,69.80
2018-02-17T19:19:54.442Z,70.10
2018-02-17T19:22:22.945Z,70.40
2018-02-17T19:24:51.503Z,70.40
2018-02-17T19:27:19.299Z,70.40
2018-02-17T19:29:47.171Z,70.40
2018-02-17T19:32:15.834Z,70.90
2018-02-17T19:34:43.622Z,70.40
2018-02-17T19:37:12.170Z,70.60
2018-02-17T19:39:39.959Z,70.60
2018-02-17T19:42:08.518Z,70.60
2018-02-17T19:44:38.175Z,70.60
2018-02-17T19:47:06.053Z,71.20
2018-02-17T19:49:33.863Z,71.90
2018-02-17T19:52:01.655Z,71.50
2018-02-17T19:58:41.850Z,71.90
2018-02-17T20:13:01.527Z,69.80
2018-02-17T20:15:47.559Z,69.60
2018-02-17T20:18:24.509Z,69.70
2018-02-17T20:20:52.816Z,69.60
2018-02-17T20:23:43.471Z,69.60
2018-02-17T20:29:16.303Z,69.40
2018-02-17T21:36:11.115Z,68.80
2018-02-17T21:38:51.507Z,68.90
2018-02-17T21:41:25.370Z,68.80
2018-02-17T21:44:02.160Z,68.90
2018-02-17T21:46:39.080Z,69.00
2018-02-17T21:52:21.110Z,68.70
2018-02-17T21:55:01.637Z,68.80
2018-02-17T21:57:36.738Z,68.80
2018-02-17T22:00:33.198Z,68.80
2018-02-17T22:29:45.409Z,68.40
2018-02-17T22:32:14.024Z,68.10
2018-02-17T22:34:42.804Z,68.10
2018-02-17T22:37:10.750Z,68.20
2018-02-17T22:39:40.868Z,68.40
2018-02-17T22:42:11.804Z,68.60
2018-02-17T22:44:40.456Z,68.60
2018-02-17T22:47:08.318Z,68.90
2018-02-17T22:49:36.367Z,69.90
2018-02-17T22:52:04.359Z,69.30
2018-02-17T22:54:34.220Z,69.60
2018-02-17T22:57:03.789Z,69.80
2018-02-17T23:00:12.607Z,70.00
2018-02-17T23:22:41.137Z,69.50
2018-02-17T23:57:00.377Z,68.80
